sensor_id;sensor_type;location;lat;lon;timestamp;pressure;altitude;pressure_sealevel;temperature;humidity
56334;BME280;42240;53.626;55.886;2023-10-19T00:00:22;77001.72;;;-145.10;100.00
56334;BME280;42240;53.626;55.886;2023-10-19T00:01:56;77011.63;;;-145.10;100.00
56334;BME280;42240;53.626;55.886;2023-10-19T00:03:30;77003.72;;;-145.10;100.00
56334;BME280;42240;53.626;55.886;2023-10-19T00:05:03;76993.81;;;-145.10;100.00
56334;BME280;42240;53.626;55.886;2023-10-19T00:06:36;76999.75;;;-145.10;100.00
56334;BME280;42240;53.626;55.886;2023-10-19T00:08:12;77003.72;;;-145.10;100.00
56334;BME280;42240;53.626;55.886;2023-10-19T00:09:45;77007.66;;;-145.10;100.00
56334;BME280;42240;53.626;55.886;2023-10-19T00:11:20;77013.59;;;-145.10;100.00
56334;BME280;42240;53.626;55.886;2023-10-19T00:12:58;77027.44;;;-145.10;100.00
56334;BME280;42240;53.626;55.886;2023-10-19T00:14:36;77027.44;;;-145.10;100.00
56334;BME280;42240;53.626;55.886;2023-10-19T00:16:09;77031.41;;;-145.10;100.00
56334;BME280;42240;53.626;55.886;2023-10-19T00:17:58;77023.50;;;-145.10;100.00
56334;BME280;42240;53.626;55.886;2023-10-19T00:19:49;77035.34;;;-145.10;100.00
56334;BME280;42240;53.626;55.886;2023-10-19T00:21:51;77033.38;;;-145.10;100.00
56334;BME280;42240;53.626;55.886;2023-10-19T00:23:27;77031.41;;;-145.10;100.00
56334;BME280;42240;53.626;55.886;2023-10-19T00:25:04;77029.41;;;-145.10;100.00
56334;BME280;42240;53.626;55.886;2023-10-19T00:26:37;77041.28;;;-145.10;100.00
56334;BME280;42240;53.626;55.886;2023-10-19T00:28:12;77039.31;;;-145.10;100.00
56334;BME280;42240;53.626;55.886;2023-10-19T00:29:47;77029.41;;;-145.10;100.00
56334;BME280;42240;53.626;55.886;2023-10-19T00:31:22;77031.41;;;-145.10;100.00
56334;BME280;42240;53.626;55.886;2023-10-19T00:32:55;77027.44;;;-145.10;100.00
56334;BME280;42240;53.626;55.886;2023-10-19T00:34:29;77043.25;;;-145.10;100.00
56334;BME280;42240;53.626;55.886;2023-10-19T00:36:02;77037.34;;;-145.10;100.00
56334;BME280;42240;53.626;55.886;2023-10-19T00:37:41;77065.03;;;-145.10;100.00
56334;BME280;42240;53.626;55.886;2023-10-19T00:39:15;77049.19;;;-145.10;100.00
56334;BME280;42240;53.626;55.886;2023-10-19T00:40:53;77059.09;;;-145.10;100.00
56334;BME280;42240;53.626;55.886;2023-10-19T00:42:31;77061.06;;;-145.10;100.00
56334;BME280;42240;53.626;55.886;2023-10-19T00:44:04;77061.06;;;-145.10;100.00
56334;BME280;42240;53.626;55.886;2023-10-19T00:45:43;77063.03;;;-145.10;100.00
56334;BME280;42240;53.626;55.886;2023-10-19T00:47:19;77065.03;;;-145.10;100.00
56334;BME280;42240;53.626;55.886;2023-10-19T00:48:56;77068.97;;;-145.10;100.00
56334;BME280;42240;53.626;55.886;2023-10-19T00:50:30;77078.88;;;-145.10;100.00
56334;BME280;42240;53.626;55.886;2023-10-19T00:52:04;77076.88;;;-145.10;100.00
56334;BME280;42240;53.626;55.886;2023-10-19T00:53:45;77080.84;;;-145.10;100.00
56334;BME280;42240;53.626;55.886;2023-10-19T00:55:19;77080.84;;;-145.10;100.00
56334;BME280;42240;53.626;55.886;2023-10-19T00:56:53;77084.78;;;-145.10;100.00
56334;BME280;42240;53.626;55.886;2023-10-19T00:58:31;77074.91;;;-145.10;100.00
56334;BME280;42240;53.626;55.886;2023-10-19T01:00:04;77082.81;;;-145.10;100.00
56334;BME280;42240;53.626;55.886;2023-10-19T01:01:54;77080.84;;;-145.10;100.00
56334;BME280;42240;53.626;55.886;2023-10-19T01:03:28;77086.78;;;-145.10;100.00
56334;BME280;42240;53.626;55.886;2023-10-19T01:05:05;77098.63;;;-145.10;100.00
56334;BME280;42240;53.626;55.886;2023-10-19T01:06:38;77118.41;;;-145.10;100.00
56334;BME280;42240;53.626;55.886;2023-10-19T01:08:11;77142.16;;;-145.10;100.00
56334;BME280;42240;53.626;55.886;2023-10-19T01:10:13;77157.97;;;-145.10;100.00
56334;BME280;42240;53.626;55.886;2023-10-19T01:12:05;77159.94;;;-145.10;100.00
56334;BME280;42240;53.626;55.886;2023-10-19T01:13:56;77173.78;;;-145.10;100.00
56334;BME280;42240;53.626;55.886;2023-10-19T01:15:30;77171.81;;;-145.10;100.00
56334;BME280;42240;53.626;55.886;2023-10-19T01:17:09;77177.75;;;-145.10;100.00
56334;BME280;42240;53.626;55.886;2023-10-19T01:18:44;77173.78;;;-145.10;100.00
56334;BME280;42240;53.626;55.886;2023-10-19T01:20:23;77173.78;;;-145.10;100.00
56334;BME280;42240;53.626;55.886;2023-10-19T01:22:10;77173.78;;;-145.10;100.00
56334;BME280;42240;53.626;55.886;2023-10-19T01:23:49;77173.78;;;-145.10;100.00
56334;BME280;42240;53.626;55.886;2023-10-19T01:25:23;77173.78;;;-145.10;100.00
56334;BME280;42240;53.626;55.886;2023-10-19T01:27:07;77173.78;;;-145.10;100.00
56334;BME280;42240;53.626;55.886;2023-10-19T01:28:43;77179.72;;;-145.10;100.00
56334;BME280;42240;53.626;55.886;2023-10-19T01:30:24;77179.72;;;-145.10;100.00
56334;BME280;42240;53.626;55.886;2023-10-19T01:31:59;77177.75;;;-145.10;100.00
56334;BME280;42240;53.626;55.886;2023-10-19T01:33:41;77177.75;;;-145.10;100.00
56334;BME280;42240;53.626;55.886;2023-10-19T01:35:14;77177.75;;;-145.10;100.00
56334;BME280;42240;53.626;55.886;2023-10-19T01:36:47;77177.75;;;-145.10;100.00
56334;BME280;42240;53.626;55.886;2023-10-19T01:38:23;77181.69;;;-145.10;100.00
56334;BME280;42240;53.626;55.886;2023-10-19T01:39:56;77183.69;;;-145.10;100.00
56334;BME280;42240;53.626;55.886;2023-10-19T01:41:29;77181.69;;;-145.10;100.00
56334;BME280;42240;53.626;55.886;2023-10-19T01:43:05;77171.81;;;-145.10;100.00
56334;BME280;42240;53.626;55.886;2023-10-19T01:44:38;77165.88;;;-145.10;100.00
56334;BME280;42240;53.626;55.886;2023-10-19T01:46:12;77157.97;;;-145.10;100.00
56334;BME280;42240;53.626;55.886;2023-10-19T01:47:46;77154.00;;;-145.10;100.00
56334;BME280;42240;53.626;55.886;2023-10-19T01:49:20;77150.06;;;-145.10;100.00
56334;BME280;42240;53.626;55.886;2023-10-19T01:51:02;77146.09;;;-145.10;100.00
56334;BME280;42240;53.626;55.886;2023-10-19T01:52:38;77142.16;;;-145.10;100.00
56334;BME280;42240;53.626;55.886;2023-10-19T01:54:11;77132.25;;;-145.10;100.00
56334;BME280;42240;53.626;55.886;2023-10-19T01:55:44;77130.28;;;-145.10;100.00
56334;BME280;42240;53.626;55.886;2023-10-19T01:57:19;77126.31;;;-145.10;100.00
56334;BME280;42240;53.626;55.886;2023-10-19T01:58:53;77122.38;;;-145.10;100.00
56334;BME280;42240;53.626;55.886;2023-10-19T02:00:30;77122.38;;;-145.10;100.00
56334;BME280;42240;53.626;55.886;2023-10-19T02:02:03;77114.47;;;-145.10;100.00
56334;BME280;42240;53.626;55.886;2023-10-19T02:03:36;77128.31;;;-145.10;100.00
56334;BME280;42240;53.626;55.886;2023-10-19T02:05:11;77112.47;;;-145.10;100.00
56334;BME280;42240;53.626;55.886;2023-10-19T02:06:48;77110.50;;;-145.10;100.00
56334;BME280;42240;53.626;55.886;2023-10-19T02:08:27;77108.53;;;-145.10;100.00
56334;BME280;42240;53.626;55.886;2023-10-19T02:10:00;77112.47;;;-145.10;100.00
56334;BME280;42240;53.626;55.886;2023-10-19T02:11:34;77102.59;;;-145.10;100.00
56334;BME280;42240;53.626;55.886;2023-10-19T02:13:11;77114.47;;;-145.10;100.00
56334;BME280;42240;53.626;55.886;2023-10-19T02:14:46;77110.50;;;-145.10;100.00
56334;BME280;42240;53.626;55.886;2023-10-19T02:16:21;77108.53;;;-145.10;100.00
56334;BME280;42240;53.626;55.886;2023-10-19T02:17:58;77110.50;;;-145.10;100.00
56334;BME280;42240;53.626;55.886;2023-10-19T02:19:35;77114.47;;;-145.10;100.00
56334;BME280;42240;53.626;55.886;2023-10-19T02:21:08;77120.41;;;-145.10;100.00
56334;BME280;42240;53.626;55.886;2023-10-19T02:22:45;77116.44;;;-145.10;100.00
56334;BME280;42240;53.626;55.886;2023-10-19T02:24:18;77110.50;;;-145.10;100.00
56334;BME280;42240;53.626;55.886;2023-10-19T02:25:52;77126.31;;;-145.10;100.00
56334;BME280;42240;53.626;55.886;2023-10-19T02:27:25;77116.44;;;-145.10;100.00
56334;BME280;42240;53.626;55.886;2023-10-19T02:29:06;77126.31;;;-145.10;100.00
56334;BME280;42240;53.626;55.886;2023-10-19T02:30:45;77122.38;;;-145.10;100.00
56334;BME280;42240;53.626;55.886;2023-10-19T02:32:17;77118.41;;;-145.10;100.00
56334;BME280;42240;53.626;55.886;2023-10-19T02:33:52;77122.38;;;-145.10;100.00
56334;BME280;42240;53.626;55.886;2023-10-19T02:35:31;77102.59;;;-145.10;100.00
56334;BME280;42240;53.626;55.886;2023-10-19T02:37:04;77110.50;;;-145.10;100.00
56334;BME280;42240;53.626;55.886;2023-10-19T02:38:36;77124.34;;;-145.10;100.00
56334;BME280;42240;53.626;55.886;2023-10-19T02:40:09;77118.41;;;-145.10;100.00
56334;BME280;42240;53.626;55.886;2023-10-19T02:41:51;77132.25;;;-145.10;100.00
56334;BME280;42240;53.626;55.886;2023-10-19T02:43:26;77122.38;;;-145.10;100.00
56334;BME280;42240;53.626;55.886;2023-10-19T02:44:59;77112.47;;;-145.10;100.00
56334;BME280;42240;53.626;55.886;2023-10-19T02:46:33;77118.41;;;-145.10;100.00
56334;BME280;42240;53.626;55.886;2023-10-19T02:48:06;77120.41;;;-145.10;100.00
56334;BME280;42240;53.626;55.886;2023-10-19T02:49:44;77110.50;;;-145.10;100.00
56334;BME280;42240;53.626;55.886;2023-10-19T02:51:29;77110.50;;;-145.10;100.00
56334;BME280;42240;53.626;55.886;2023-10-19T02:53:02;77108.53;;;-145.10;100.00
56334;BME280;42240;53.626;55.886;2023-10-19T02:54:35;77108.53;;;-145.10;100.00
56334;BME280;42240;53.626;55.886;2023-10-19T02:56:12;77114.47;;;-145.10;100.00
56334;BME280;42240;53.626;55.886;2023-10-19T02:57:45;77116.44;;;-145.10;100.00
56334;BME280;42240;53.626;55.886;2023-10-19T02:59:19;77116.44;;;-145.10;100.00
56334;BME280;42240;53.626;55.886;2023-10-19T03:00:55;77106.56;;;-145.10;100.00
56334;BME280;42240;53.626;55.886;2023-10-19T03:02:29;77114.47;;;-145.10;100.00
56334;BME280;42240;53.626;55.886;2023-10-19T03:04:03;77106.56;;;-145.10;100.00
56334;BME280;42240;53.626;55.886;2023-10-19T03:05:39;77110.50;;;-145.10;100.00
56334;BME280;42240;53.626;55.886;2023-10-19T03:07:14;77118.41;;;-145.10;100.00
56334;BME280;42240;53.626;55.886;2023-10-19T03:08:49;77112.47;;;-145.10;100.00
56334;BME280;42240;53.626;55.886;2023-10-19T03:10:33;77110.50;;;-145.10;100.00
56334;BME280;42240;53.626;55.886;2023-10-19T03:12:15;77104.56;;;-145.10;100.00
56334;BME280;42240;53.626;55.886;2023-10-19T03:13:49;77114.47;;;-145.10;100.00
56334;BME280;42240;53.626;55.886;2023-10-19T03:15:23;77102.59;;;-145.10;100.00
56334;BME280;42240;53.626;55.886;2023-10-19T03:16:57;77104.56;;;-145.10;100.00
56334;BME280;42240;53.626;55.886;2023-10-19T03:18:30;77096.66;;;-145.10;100.00
56334;BME280;42240;53.626;55.886;2023-10-19T03:20:03;77106.56;;;-145.10;100.00
56334;BME280;42240;53.626;55.886;2023-10-19T03:21:38;77104.56;;;-145.10;100.00
56334;BME280;42240;53.626;55.886;2023-10-19T03:23:15;77108.53;;;-145.10;100.00
56334;BME280;42240;53.626;55.886;2023-10-19T03:24:48;77112.47;;;-145.10;100.00
56334;BME280;42240;53.626;55.886;2023-10-19T03:26:30;77122.38;;;-145.10;100.00
56334;BME280;42240;53.626;55.886;2023-10-19T03:28:04;77116.44;;;-145.10;100.00
56334;BME280;42240;53.626;55.886;2023-10-19T03:29:45;77130.28;;;-145.10;100.00
56334;BME280;42240;53.626;55.886;2023-10-19T03:31:21;77140.16;;;-145.10;100.00
56334;BME280;42240;53.626;55.886;2023-10-19T03:32:55;77140.16;;;-145.10;100.00
56334;BME280;42240;53.626;55.886;2023-10-19T03:34:32;77128.31;;;-145.10;100.00
56334;BME280;42240;53.626;55.886;2023-10-19T03:36:09;77126.31;;;-145.10;100.00
56334;BME280;42240;53.626;55.886;2023-10-19T03:37:45;77126.31;;;-145.10;100.00
56334;BME280;42240;53.626;55.886;2023-10-19T03:39:23;77138.19;;;-145.10;100.00
56334;BME280;42240;53.626;55.886;2023-10-19T03:41:00;77138.19;;;-145.10;100.00
56334;BME280;42240;53.626;55.886;2023-10-19T03:42:42;77130.28;;;-145.10;100.00
56334;BME280;42240;53.626;55.886;2023-10-19T03:44:19;77124.34;;;-145.10;100.00
56334;BME280;42240;53.626;55.886;2023-10-19T03:45:58;77088.75;;;-145.10;100.00
56334;BME280;42240;53.626;55.886;2023-10-19T03:47:31;77106.56;;;-145.10;100.00
56334;BME280;42240;53.626;55.886;2023-10-19T03:49:08;77122.38;;;-145.10;100.00
56334;BME280;42240;53.626;55.886;2023-10-19T03:50:44;77110.50;;;-145.10;100.00
56334;BME280;42240;53.626;55.886;2023-10-19T03:52:21;77120.41;;;-145.10;100.00
56334;BME280;42240;53.626;55.886;2023-10-19T03:53:54;77110.50;;;-145.10;100.00
56334;BME280;42240;53.626;55.886;2023-10-19T03:55:31;77106.56;;;-145.10;100.00
56334;BME280;42240;53.626;55.886;2023-10-19T03:57:03;77106.56;;;-145.10;100.00
56334;BME280;42240;53.626;55.886;2023-10-19T03:58:38;77098.63;;;-145.10;100.00
56334;BME280;42240;53.626;55.886;2023-10-19T04:00:16;77092.72;;;-145.10;100.00
56334;BME280;42240;53.626;55.886;2023-10-19T04:01:57;77094.69;;;-145.10;100.00
56334;BME280;42240;53.626;55.886;2023-10-19T04:03:32;77102.59;;;-145.10;100.00
56334;BME280;42240;53.626;55.886;2023-10-19T04:05:05;77090.72;;;-145.10;100.00
56334;BME280;42240;53.626;55.886;2023-10-19T04:06:40;77076.88;;;-145.10;100.00
56334;BME280;42240;53.626;55.886;2023-10-19T04:08:13;77098.63;;;-145.10;100.00
56334;BME280;42240;53.626;55.886;2023-10-19T04:09:48;77092.72;;;-145.10;100.00
56334;BME280;42240;53.626;55.886;2023-10-19T04:11:44;77082.81;;;-145.10;100.00
56334;BME280;42240;53.626;55.886;2023-10-19T04:13:21;77082.81;;;-145.10;100.00
56334;BME280;42240;53.626;55.886;2023-10-19T04:14:54;77070.94;;;-145.10;100.00
56334;BME280;42240;53.626;55.886;2023-10-19T04:16:28;77067.00;;;-145.10;100.00
56334;BME280;42240;53.626;55.886;2023-10-19T04:18:01;77080.84;;;-145.10;100.00
56334;BME280;42240;53.626;55.886;2023-10-19T04:19:34;77082.81;;;-145.10;100.00
56334;BME280;42240;53.626;55.886;2023-10-19T04:21:06;77088.75;;;-145.10;100.00
56334;BME280;42240;53.626;55.886;2023-10-19T04:22:39;77098.63;;;-145.10;100.00
56334;BME280;42240;53.626;55.886;2023-10-19T04:24:13;77088.75;;;-145.10;100.00
56334;BME280;42240;53.626;55.886;2023-10-19T04:25:47;77086.78;;;-145.10;100.00
56334;BME280;42240;53.626;55.886;2023-10-19T04:27:20;77084.78;;;-145.10;100.00
56334;BME280;42240;53.626;55.886;2023-10-19T04:28:55;77094.69;;;-145.10;100.00
56334;BME280;42240;53.626;55.886;2023-10-19T04:30:28;77080.84;;;-145.10;100.00
56334;BME280;42240;53.626;55.886;2023-10-19T04:32:02;77086.78;;;-145.10;100.00
56334;BME280;42240;53.626;55.886;2023-10-19T04:33:39;77096.66;;;-145.10;100.00
56334;BME280;42240;53.626;55.886;2023-10-19T04:35:15;77080.84;;;-145.10;100.00
56334;BME280;42240;53.626;55.886;2023-10-19T04:36:53;77082.81;;;-145.10;100.00
56334;BME280;42240;53.626;55.886;2023-10-19T04:38:26;77072.94;;;-145.10;100.00
56334;BME280;42240;53.626;55.886;2023-10-19T04:39:59;77070.94;;;-145.10;100.00
56334;BME280;42240;53.626;55.886;2023-10-19T04:41:34;77076.88;;;-145.10;100.00
56334;BME280;42240;53.626;55.886;2023-10-19T04:43:07;77070.94;;;-145.10;100.00
56334;BME280;42240;53.626;55.886;2023-10-19T04:44:39;77067.00;;;-145.10;100.00
56334;BME280;42240;53.626;55.886;2023-10-19T04:46:12;77076.88;;;-145.10;100.00
56334;BME280;42240;53.626;55.886;2023-10-19T04:47:49;77078.88;;;-145.10;100.00
56334;BME280;42240;53.626;55.886;2023-10-19T04:49:24;77070.94;;;-145.10;100.00
56334;BME280;42240;53.626;55.886;2023-10-19T04:50:56;77076.88;;;-145.10;100.00
56334;BME280;42240;53.626;55.886;2023-10-19T04:52:30;77078.88;;;-145.10;100.00
56334;BME280;42240;53.626;55.886;2023-10-19T04:54:02;77078.88;;;-145.10;100.00
56334;BME280;42240;53.626;55.886;2023-10-19T04:55:35;77074.91;;;-145.10;100.00
56334;BME280;42240;53.626;55.886;2023-10-19T04:57:08;77068.97;;;-145.10;100.00
56334;BME280;42240;53.626;55.886;2023-10-19T04:58:43;77067.00;;;-145.10;100.00
56334;BME280;42240;53.626;55.886;2023-10-19T05:00:17;77067.00;;;-145.10;100.00
56334;BME280;42240;53.626;55.886;2023-10-19T05:01:52;77057.09;;;-145.10;100.00
56334;BME280;42240;53.626;55.886;2023-10-19T05:03:29;77053.16;;;-145.10;100.00
56334;BME280;42240;53.626;55.886;2023-10-19T05:05:02;77053.16;;;-145.10;100.00
56334;BME280;42240;53.626;55.886;2023-10-19T05:06:35;77051.19;;;-145.10;100.00
56334;BME280;42240;53.626;55.886;2023-10-19T05:08:08;77059.09;;;-145.10;100.00
56334;BME280;42240;53.626;55.886;2023-10-19T05:09:41;77067.00;;;-145.10;100.00
56334;BME280;42240;53.626;55.886;2023-10-19T05:11:14;77065.03;;;-145.10;100.00
56334;BME280;42240;53.626;55.886;2023-10-19T05:12:47;77063.03;;;-145.10;100.00
56334;BME280;42240;53.626;55.886;2023-10-19T05:14:20;77055.13;;;-145.10;100.00
56334;BME280;42240;53.626;55.886;2023-10-19T05:15:53;77053.16;;;-145.10;100.00
56334;BME280;42240;53.626;55.886;2023-10-19T05:17:26;77059.09;;;-145.10;100.00
56334;BME280;42240;53.626;55.886;2023-10-19T05:19:00;77051.19;;;-145.10;100.00
56334;BME280;42240;53.626;55.886;2023-10-19T05:20:32;77043.25;;;-145.10;100.00
56334;BME280;42240;53.626;55.886;2023-10-19T05:22:06;77039.31;;;-145.10;100.00
56334;BME280;42240;53.626;55.886;2023-10-19T05:23:39;77049.19;;;-145.10;100.00
56334;BME280;42240;53.626;55.886;2023-10-19T05:25:12;77043.25;;;-145.10;100.00
56334;BME280;42240;53.626;55.886;2023-10-19T05:26:45;77019.53;;;-145.10;100.00
56334;BME280;42240;53.626;55.886;2023-10-19T05:28:19;77035.34;;;-145.10;100.00
56334;BME280;42240;53.626;55.886;2023-10-19T05:29:54;77027.44;;;-145.10;100.00
56334;BME280;42240;53.626;55.886;2023-10-19T05:31:27;77025.47;;;-145.10;100.00
56334;BME280;42240;53.626;55.886;2023-10-19T05:33:00;77023.50;;;-145.10;100.00
56334;BME280;42240;53.626;55.886;2023-10-19T05:34:36;77021.50;;;-145.10;100.00
56334;BME280;42240;53.626;55.886;2023-10-19T05:36:09;77023.50;;;-145.10;100.00
56334;BME280;42240;53.626;55.886;2023-10-19T05:37:42;77019.53;;;-145.10;100.00
56334;BME280;42240;53.626;55.886;2023-10-19T05:39:15;77019.53;;;-145.10;100.00
56334;BME280;42240;53.626;55.886;2023-10-19T05:40:49;77011.63;;;-145.10;100.00
56334;BME280;42240;53.626;55.886;2023-10-19T05:42:25;77015.56;;;-145.10;100.00
56334;BME280;42240;53.626;55.886;2023-10-19T05:43:59;77015.56;;;-145.10;100.00
56334;BME280;42240;53.626;55.886;2023-10-19T05:45:32;77023.50;;;-145.10;100.00
56334;BME280;42240;53.626;55.886;2023-10-19T05:47:06;77027.44;;;-145.10;100.00
56334;BME280;42240;53.626;55.886;2023-10-19T05:48:39;77011.63;;;-145.10;100.00
56334;BME280;42240;53.626;55.886;2023-10-19T05:50:12;77023.50;;;-145.10;100.00
56334;BME280;42240;53.626;55.886;2023-10-19T05:51:48;77023.50;;;-145.10;100.00
56334;BME280;42240;53.626;55.886;2023-10-19T05:53:21;77005.69;;;-145.10;100.00
56334;BME280;42240;53.626;55.886;2023-10-19T05:54:54;77007.66;;;-145.10;100.00
56334;BME280;42240;53.626;55.886;2023-10-19T05:56:28;77003.72;;;-145.10;100.00
56334;BME280;42240;53.626;55.886;2023-10-19T05:58:00;77005.69;;;-145.10;100.00
56334;BME280;42240;53.626;55.886;2023-10-19T05:59:33;77009.66;;;-145.10;100.00
56334;BME280;42240;53.626;55.886;2023-10-19T06:01:06;76979.97;;;-145.10;100.00
56334;BME280;42240;53.626;55.886;2023-10-19T06:02:42;76972.06;;;-145.10;100.00
56334;BME280;42240;53.626;55.886;2023-10-19T06:04:17;76960.22;;;-145.10;100.00
56334;BME280;42240;53.626;55.886;2023-10-19T06:06:03;76946.38;;;-145.10;100.00
56334;BME280;42240;53.626;55.886;2023-10-19T06:07:35;76936.47;;;-145.10;100.00
56334;BME280;42240;53.626;55.886;2023-10-19T06:09:08;76938.44;;;-145.10;100.00
56334;BME280;42240;53.626;55.886;2023-10-19T06:10:41;76926.59;;;-145.10;100.00
56334;BME280;42240;53.626;55.886;2023-10-19T06:12:14;76932.53;;;-145.10;100.00
56334;BME280;42240;53.626;55.886;2023-10-19T06:13:47;76920.66;;;-145.10;100.00
56334;BME280;42240;53.626;55.886;2023-10-19T06:15:21;76934.50;;;-145.10;100.00
56334;BME280;42240;53.626;55.886;2023-10-19T06:16:55;76928.56;;;-145.10;100.00
56334;BME280;42240;53.626;55.886;2023-10-19T06:18:29;76916.69;;;-145.10;100.00
56334;BME280;42240;53.626;55.886;2023-10-19T06:20:01;76920.66;;;-145.10;100.00
56334;BME280;42240;53.626;55.886;2023-10-19T06:21:35;76916.69;;;-145.10;100.00
56334;BME280;42240;53.626;55.886;2023-10-19T06:23:09;76904.84;;;-145.10;100.00
56334;BME280;42240;53.626;55.886;2023-10-19T06:24:42;76900.88;;;-145.10;100.00
56334;BME280;42240;53.626;55.886;2023-10-19T06:26:16;76904.84;;;-145.10;100.00
56334;BME280;42240;53.626;55.886;2023-10-19T06:27:49;76898.91;;;-145.10;100.00
56334;BME280;42240;53.626;55.886;2023-10-19T06:29:22;76891.00;;;-145.10;100.00
56334;BME280;42240;53.626;55.886;2023-10-19T06:30:59;76902.84;;;-145.10;100.00
56334;BME280;42240;53.626;55.886;2023-10-19T06:32:32;76900.88;;;-145.10;100.00
56334;BME280;42240;53.626;55.886;2023-10-19T06:34:05;76902.84;;;-145.10;100.00
56334;BME280;42240;53.626;55.886;2023-10-19T06:35:38;76900.88;;;-145.10;100.00
56334;BME280;42240;53.626;55.886;2023-10-19T06:37:10;76904.84;;;-145.10;100.00
56334;BME280;42240;53.626;55.886;2023-10-19T06:38:43;76898.91;;;-145.10;100.00
56334;BME280;42240;53.626;55.886;2023-10-19T06:40:17;76892.97;;;-145.10;100.00
56334;BME280;42240;53.626;55.886;2023-10-19T06:41:50;76879.13;;;-145.10;100.00
56334;BME280;42240;53.626;55.886;2023-10-19T06:43:22;76867.25;;;-145.10;100.00
56334;BME280;42240;53.626;55.886;2023-10-19T06:45:04;76877.16;;;-145.10;100.00
56334;BME280;42240;53.626;55.886;2023-10-19T06:46:37;76859.34;;;-145.10;100.00
56334;BME280;42240;53.626;55.886;2023-10-19T06:48:11;76863.31;;;-145.10;100.00
56334;BME280;42240;53.626;55.886;2023-10-19T06:49:44;76845.50;;;-145.10;100.00
56334;BME280;42240;53.626;55.886;2023-10-19T06:51:17;76829.69;;;-145.10;100.00
56334;BME280;42240;53.626;55.886;2023-10-19T06:52:56;76823.75;;;-145.10;100.00
56334;BME280;42240;53.626;55.886;2023-10-19T06:54:31;76825.72;;;-145.10;100.00
56334;BME280;42240;53.626;55.886;2023-10-19T06:56:05;76829.69;;;-145.10;100.00
56334;BME280;42240;53.626;55.886;2023-10-19T06:57:42;76833.66;;;-145.10;100.00
56334;BME280;42240;53.626;55.886;2023-10-19T06:59:15;76807.94;;;-145.10;100.00
56334;BME280;42240;53.626;55.886;2023-10-19T07:00:48;76833.66;;;-145.10;100.00
56334;BME280;42240;53.626;55.886;2023-10-19T07:02:29;76833.66;;;-145.10;100.00
56334;BME280;42240;53.626;55.886;2023-10-19T07:04:02;76821.78;;;-145.10;100.00
56334;BME280;42240;53.626;55.886;2023-10-19T07:05:35;76819.81;;;-145.10;100.00
56334;BME280;42240;53.626;55.886;2023-10-19T07:07:08;76817.81;;;-145.10;100.00
56334;BME280;42240;53.626;55.886;2023-10-19T07:08:41;76809.91;;;-145.10;100.00
56334;BME280;42240;53.626;55.886;2023-10-19T07:10:14;76817.81;;;-145.10;100.00
56334;BME280;42240;53.626;55.886;2023-10-19T07:11:47;76796.06;;;-145.10;100.00
56334;BME280;42240;53.626;55.886;2023-10-19T07:13:20;76792.13;;;-145.10;100.00
56334;BME280;42240;53.626;55.886;2023-10-19T07:14:53;76809.91;;;-145.10;100.00
56334;BME280;42240;53.626;55.886;2023-10-19T07:16:26;76794.09;;;-145.10;100.00
56334;BME280;42240;53.626;55.886;2023-10-19T07:17:59;76802.00;;;-145.10;100.00
56334;BME280;42240;53.626;55.886;2023-10-19T07:19:32;76809.91;;;-145.10;100.00
56334;BME280;42240;53.626;55.886;2023-10-19T07:21:04;76809.91;;;-145.10;100.00
56334;BME280;42240;53.626;55.886;2023-10-19T07:22:41;76809.91;;;-145.10;100.00
56334;BME280;42240;53.626;55.886;2023-10-19T07:24:16;76809.91;;;-145.10;100.00
56334;BME280;42240;53.626;55.886;2023-10-19T07:25:52;76786.19;;;-145.10;100.00
56334;BME280;42240;53.626;55.886;2023-10-19T07:27:29;76790.13;;;-145.10;100.00
56334;BME280;42240;53.626;55.886;2023-10-19T07:29:09;76788.16;;;-145.10;100.00
56334;BME280;42240;53.626;55.886;2023-10-19T07:30:43;76778.28;;;-145.10;100.00
56334;BME280;42240;53.626;55.886;2023-10-19T07:32:16;76766.41;;;-145.10;100.00
56334;BME280;42240;53.626;55.886;2023-10-19T07:33:49;76776.28;;;-145.10;100.00
56334;BME280;42240;53.626;55.886;2023-10-19T07:35:23;76770.38;;;-145.10;100.00
56334;BME280;42240;53.626;55.886;2023-10-19T07:36:58;76752.56;;;-145.10;100.00
56334;BME280;42240;53.626;55.886;2023-10-19T07:38:31;76732.78;;;-145.10;100.00
56334;BME280;42240;53.626;55.886;2023-10-19T07:40:06;76722.91;;;-145.10;100.00
56334;BME280;42240;53.626;55.886;2023-10-19T07:41:42;76736.75;;;-145.10;100.00
56334;BME280;42240;53.626;55.886;2023-10-19T07:43:14;76742.69;;;-145.10;100.00
56334;BME280;42240;53.626;55.886;2023-10-19T07:44:47;76711.03;;;-145.10;100.00
56334;BME280;42240;53.626;55.886;2023-10-19T07:46:22;76707.09;;;-145.10;100.00
56334;BME280;42240;53.626;55.886;2023-10-19T07:47:55;76716.97;;;-145.10;100.00
56334;BME280;42240;53.626;55.886;2023-10-19T07:49:27;76711.03;;;-145.10;100.00
56334;BME280;42240;53.626;55.886;2023-10-19T07:51:00;76687.31;;;-145.10;100.00
56334;BME280;42240;53.626;55.886;2023-10-19T07:52:33;76713.03;;;-145.10;100.00
56334;BME280;42240;53.626;55.886;2023-10-19T07:54:08;76695.22;;;-145.10;100.00
56334;BME280;42240;53.626;55.886;2023-10-19T07:55:41;76677.41;;;-145.10;100.00
56334;BME280;42240;53.626;55.886;2023-10-19T07:57:14;76679.41;;;-145.10;100.00
56334;BME280;42240;53.626;55.886;2023-10-19T07:58:48;76703.13;;;-145.10;100.00